createdAt,value
2019-02-23T00:02:10.308Z,12.47
2019-02-23T00:04:38.782Z,13.73
2019-02-23T00:07:07.272Z,11.70
2019-02-23T00:09:35.725Z,9.70
2019-02-23T00:12:04.739Z,10.23
2019-02-23T00:14:33.365Z,11.87
2019-02-23T00:17:01.854Z,12.93
2019-02-23T00:19:30.318Z,12.27
2019-02-23T00:21:58.807Z,12.13
2019-02-23T00:24:27.281Z,16.37
2019-02-23T00:26:55.768Z,12.13
2019-02-23T00:29:24.297Z,13.03
2019-02-23T00:31:52.776Z,10.83
2019-02-23T00:34:21.254Z,15.67
2019-02-23T00:36:49.738Z,13.33
2019-02-23T00:39:18.188Z,11.13
2019-02-23T00:41:46.683Z,11.20
2019-02-23T00:44:15.151Z,13.47
2019-02-23T00:46:43.639Z,12.67
2019-02-23T00:49:12.106Z,13.50
2019-02-23T00:51:40.597Z,11.53
2019-02-23T00:54:09.063Z,14.50
2019-02-23T00:56:37.551Z,9.77
2019-02-23T00:59:06.019Z,12.20
2019-02-23T01:01:34.513Z,10.67
2019-02-23T01:04:02.986Z,14.63
2019-02-23T01:06:31.487Z,11.80
2019-02-23T01:09:00.000Z,11.97
2019-02-23T01:11:28.439Z,11.23
2019-02-23T01:13:56.910Z,11.80
2019-02-23T01:16:25.413Z,11.93
2019-02-23T01:18:53.878Z,11.33
2019-02-23T01:21:22.380Z,13.27
2019-02-23T01:23:50.850Z,11.83
2019-02-23T01:26:19.401Z,13.20
2019-02-23T01:28:47.872Z,12.07
2019-02-23T01:31:16.328Z,9.03
2019-02-23T01:33:44.895Z,9.33
2019-02-23T01:36:13.365Z,12.27
2019-02-23T01:38:41.871Z,12.37
2019-02-23T01:41:10.418Z,10.73
2019-02-23T01:43:38.910Z,11.00
2019-02-23T01:46:07.379Z,12.83
2019-02-23T01:48:35.869Z,11.13
2019-02-23T01:51:04.340Z,13.90
2019-02-23T01:53:32.833Z,13.93
2019-02-23T01:56:01.300Z,13.33
2019-02-23T01:58:29.783Z,12.57
2019-02-23T02:00:58.492Z,11.97
2019-02-23T02:03:26.977Z,12.30
2019-02-23T02:05:55.590Z,12.93
2019-02-23T02:08:24.095Z,13.07
2019-02-23T02:10:52.552Z,13.57
2019-02-23T02:13:21.038Z,13.47
2019-02-23T02:15:49.499Z,10.77
2019-02-23T02:18:18.069Z,12.63
2019-02-23T02:20:46.543Z,12.70
2019-02-23T02:23:15.026Z,10.90
2019-02-23T02:25:43.495Z,10.93
2019-02-23T02:28:11.988Z,11.50
2019-02-23T02:30:40.462Z,12.07
2019-02-23T02:33:08.967Z,12.70
2019-02-23T02:35:37.459Z,11.87
2019-02-23T02:38:05.929Z,12.00
2019-02-23T02:40:34.399Z,11.07
2019-02-23T02:43:02.890Z,16.07
2019-02-23T02:45:31.557Z,13.43
2019-02-23T02:48:00.048Z,14.37
2019-02-23T02:50:28.516Z,13.53
2019-02-23T02:52:57.012Z,18.03
2019-02-23T02:55:25.488Z,15.17
2019-02-23T02:57:53.979Z,15.00
2019-02-23T03:00:22.448Z,16.57
2019-02-23T03:02:50.937Z,21.77
2019-02-23T03:05:19.412Z,14.20
2019-02-23T03:07:48.491Z,17.53
2019-02-23T03:10:16.965Z,15.93
2019-02-23T03:12:45.448Z,14.87
2019-02-23T03:15:13.981Z,17.50
2019-02-23T03:17:42.483Z,15.70
2019-02-23T03:20:10.936Z,18.37
2019-02-23T03:22:39.445Z,18.00
2019-02-23T03:25:08.305Z,16.50
2019-02-23T03:27:36.794Z,15.47
2019-02-23T03:30:07.993Z,15.87
2019-02-23T03:32:36.480Z,16.10
2019-02-23T03:35:05.490Z,17.83
2019-02-23T03:37:33.980Z,19.67
2019-02-23T03:40:02.452Z,18.17
2019-02-23T03:42:30.953Z,21.00
2019-02-23T03:44:59.415Z,18.37
2019-02-23T03:47:27.909Z,19.83
2019-02-23T03:49:56.381Z,16.63
2019-02-23T03:52:24.874Z,16.30
2019-02-23T03:54:53.344Z,19.53
2019-02-23T03:57:21.833Z,32.10
2019-02-23T03:59:50.304Z,17.10
2019-02-23T04:02:18.797Z,19.23
2019-02-23T04:04:47.253Z,15.77
2019-02-23T04:07:15.727Z,19.03
2019-02-23T04:09:44.220Z,19.00
2019-02-23T04:12:12.691Z,16.93
2019-02-23T04:14:41.175Z,17.47
2019-02-23T04:17:09.644Z,18.70
2019-02-23T04:19:38.147Z,18.80
2019-02-23T04:22:06.630Z,15.53
2019-02-23T04:24:35.099Z,18.13
2019-02-23T04:27:03.560Z,19.87
2019-02-23T04:29:32.041Z,20.87
2019-02-23T04:32:00.524Z,18.57
2019-02-23T04:34:29.006Z,18.83
2019-02-23T04:36:57.542Z,15.43
2019-02-23T04:39:26.021Z,22.87
2019-02-23T04:41:54.476Z,19.57
2019-02-23T04:44:22.983Z,19.47
2019-02-23T04:46:51.512Z,17.33
2019-02-23T04:49:19.993Z,17.93
2019-02-23T04:51:48.457Z,18.97
2019-02-23T04:54:17.079Z,20.57
2019-02-23T04:56:45.502Z,20.83
2019-02-23T04:59:13.998Z,18.43
2019-02-23T05:01:42.462Z,19.67
2019-02-23T05:04:10.949Z,20.03
2019-02-23T05:06:39.429Z,19.83
2019-02-23T05:09:07.905Z,16.17
2019-02-23T05:11:36.364Z,20.57
2019-02-23T05:14:04.910Z,22.97
2019-02-23T05:16:33.370Z,19.13
2019-02-23T05:19:01.877Z,22.63
2019-02-23T05:21:30.330Z,19.40
2019-02-23T05:23:58.803Z,18.10
2019-02-23T05:26:27.277Z,19.17
2019-02-23T05:28:55.764Z,20.07
2019-02-23T05:31:24.232Z,22.97
2019-02-23T05:33:52.726Z,17.90
2019-02-23T05:36:21.193Z,18.90
2019-02-23T05:38:49.683Z,20.43
2019-02-23T05:41:18.142Z,18.30
2019-02-23T05:43:46.651Z,22.00
2019-02-23T05:46:15.126Z,21.90
2019-02-23T05:48:43.618Z,22.13
2019-02-23T05:51:12.082Z,19.17
2019-02-23T05:53:40.580Z,18.23
2019-02-23T05:56:12.385Z,21.87
2019-02-23T05:58:39.320Z,22.50
2019-02-23T06:01:07.781Z,20.73
2019-02-23T06:03:36.269Z,22.53
2019-02-23T06:06:04.767Z,22.20
2019-02-23T06:08:33.214Z,19.03
2019-02-23T06:11:01.700Z,25.87
2019-02-23T06:13:30.179Z,23.10
2019-02-23T06:15:58.654Z,22.37
2019-02-23T06:18:27.133Z,19.73
2019-02-23T06:20:55.594Z,23.93
2019-02-23T06:23:24.086Z,18.97
2019-02-23T06:25:52.545Z,23.93
2019-02-23T06:28:21.163Z,22.87
2019-02-23T06:30:49.635Z,23.10
2019-02-23T06:33:18.128Z,19.53
2019-02-23T06:35:46.749Z,21.87
2019-02-23T06:38:15.334Z,21.80
2019-02-23T06:40:43.815Z,22.63
2019-02-23T06:43:12.308Z,18.97
2019-02-23T06:45:40.812Z,26.07
2019-02-23T06:48:09.284Z,21.90
2019-02-23T06:50:37.774Z,21.87
2019-02-23T06:53:06.253Z,22.00
2019-02-23T06:55:34.739Z,22.60
2019-02-23T06:58:03.291Z,24.63
2019-02-23T07:00:31.781Z,24.57
2019-02-23T07:03:00.256Z,22.63
2019-02-23T07:05:28.736Z,20.23
2019-02-23T07:07:57.218Z,22.73
2019-02-23T07:10:25.704Z,20.80
2019-02-23T07:12:54.181Z,23.93
2019-02-23T07:15:22.695Z,23.67
2019-02-23T07:17:51.181Z,25.13
2019-02-23T07:20:19.655Z,20.20
2019-02-23T07:22:48.137Z,19.83
2019-02-23T07:25:16.631Z,22.57
2019-02-23T07:27:45.099Z,21.70
2019-02-23T07:30:16.813Z,21.37
2019-02-23T07:32:45.259Z,22.10
2019-02-23T07:35:13.842Z,22.47
2019-02-23T07:37:42.312Z,19.70
2019-02-23T07:40:15.469Z,21.73
2019-02-23T07:42:43.950Z,25.43
2019-02-23T07:45:12.598Z,24.00
2019-02-23T07:47:41.083Z,21.33
2019-02-23T07:50:14.856Z,21.57
2019-02-23T07:52:43.361Z,20.43
2019-02-23T07:55:11.856Z,25.73
2019-02-23T07:57:40.336Z,19.27
2019-02-23T08:00:11.638Z,22.10
2019-02-23T08:02:40.121Z,22.50
2019-02-23T08:05:10.172Z,21.27
2019-02-23T08:07:39.959Z,19.47
2019-02-23T08:10:10.926Z,21.70
2019-02-23T08:12:39.556Z,23.63
2019-02-23T08:15:10.297Z,21.23
2019-02-23T08:17:38.823Z,21.17
2019-02-23T08:20:10.600Z,20.33
2019-02-23T08:22:39.060Z,18.30
2019-02-23T08:25:10.182Z,20.97
2019-02-23T08:27:38.639Z,20.00
2019-02-23T08:30:10.462Z,19.90
2019-02-23T08:32:38.930Z,20.40
2019-02-23T08:35:08.347Z,22.40
2019-02-23T08:37:36.814Z,16.63
2019-02-23T08:40:08.874Z,20.07
2019-02-23T08:42:37.347Z,18.67
2019-02-23T08:45:08.283Z,19.93
2019-02-23T08:47:36.748Z,18.03
2019-02-23T08:50:08.145Z,17.27
2019-02-23T08:52:36.634Z,19.67
2019-02-23T08:55:07.341Z,20.00
2019-02-23T08:57:35.837Z,18.37
2019-02-23T09:00:06.674Z,17.47
2019-02-23T09:02:35.153Z,18.27
2019-02-23T09:05:03.859Z,15.37
2019-02-23T09:07:32.370Z,17.90
2019-02-23T09:10:00.804Z,18.17
2019-02-23T09:12:29.293Z,17.53
2019-02-23T09:14:57.766Z,18.40
2019-02-23T09:17:26.247Z,18.97
2019-02-23T09:19:54.716Z,15.20
2019-02-23T09:22:23.212Z,15.23
2019-02-23T09:24:51.694Z,15.27
2019-02-23T09:27:20.181Z,17.20
2019-02-23T09:29:48.655Z,15.87
2019-02-23T09:32:17.151Z,16.10
2019-02-23T09:34:45.617Z,16.30
2019-02-23T09:37:14.102Z,18.57
2019-02-23T09:39:42.621Z,16.97
2019-02-23T09:42:11.125Z,14.13
2019-02-23T09:44:39.609Z,18.47
2019-02-23T09:47:08.118Z,16.67
2019-02-23T09:49:36.581Z,15.07
2019-02-23T09:52:05.064Z,16.50
2019-02-23T09:54:33.570Z,15.73
2019-02-23T09:57:02.075Z,16.83
2019-02-23T09:59:30.548Z,14.53
2019-02-23T10:01:59.033Z,14.53
2019-02-23T10:04:27.504Z,13.37
2019-02-23T10:06:55.990Z,13.97
2019-02-23T10:09:24.444Z,15.10
2019-02-23T10:11:52.952Z,14.23
2019-02-23T10:14:21.422Z,14.33
2019-02-23T10:16:49.908Z,16.23
2019-02-23T10:19:18.395Z,16.27
2019-02-23T10:21:46.870Z,15.77
2019-02-23T10:24:15.356Z,15.67
2019-02-23T10:26:43.836Z,15.43
2019-02-23T10:29:12.304Z,15.97
2019-02-23T10:31:40.804Z,13.70
2019-02-23T10:34:09.273Z,21.87
2019-02-23T10:36:37.724Z,13.53
2019-02-23T10:39:06.285Z,14.80
2019-02-23T10:41:34.815Z,13.53
2019-02-23T10:44:03.324Z,12.10
2019-02-23T10:46:31.783Z,10.63
2019-02-23T10:49:00.276Z,12.10
2019-02-23T10:51:28.744Z,13.83
2019-02-23T10:53:57.236Z,12.10
2019-02-23T10:56:25.764Z,13.40
2019-02-23T10:58:54.259Z,13.60
2019-02-23T11:01:22.719Z,13.73
2019-02-23T11:03:51.202Z,11.83
2019-02-23T11:06:19.649Z,15.17
2019-02-23T11:08:48.218Z,11.07
2019-02-23T11:11:16.675Z,10.40
2019-02-23T11:13:45.228Z,11.93
2019-02-23T11:16:14.025Z,9.03
2019-02-23T11:18:42.605Z,11.73
2019-02-23T11:21:11.052Z,10.63
2019-02-23T11:23:44.350Z,12.13
2019-02-23T11:26:09.863Z,13.97
2019-02-23T11:28:38.534Z,14.07
2019-02-23T11:31:07.080Z,12.87
2019-02-23T11:33:35.582Z,14.53
2019-02-23T11:36:04.192Z,14.50
2019-02-23T11:38:32.672Z,10.77
2019-02-23T11:41:01.140Z,15.43
2019-02-23T11:43:29.639Z,13.20
2019-02-23T11:45:58.101Z,10.67
2019-02-23T11:48:26.589Z,15.07
2019-02-23T11:50:55.056Z,12.13
2019-02-23T11:53:23.554Z,11.87
2019-02-23T11:55:52.022Z,11.23
2019-02-23T11:58:20.498Z,12.93
2019-02-23T12:00:49.063Z,12.07
2019-02-23T12:03:17.561Z,12.50
2019-02-23T12:05:46.043Z,14.97
2019-02-23T12:08:14.530Z,12.67
2019-02-23T12:10:43.006Z,14.50
2019-02-23T12:13:11.487Z,11.83
2019-02-23T12:15:39.940Z,11.20
2019-02-23T12:18:08.472Z,14.43
2019-02-23T12:20:36.898Z,14.17
2019-02-23T12:23:05.377Z,13.07
2019-02-23T12:25:33.845Z,14.33
2019-02-23T12:28:02.298Z,12.60
2019-02-23T12:30:32.758Z,12.97
2019-02-23T12:33:00.977Z,11.23
2019-02-23T12:35:29.546Z,13.07
2019-02-23T12:37:58.034Z,12.73
2019-02-23T12:40:26.528Z,13.40
2019-02-23T12:42:55.007Z,14.00
2019-02-23T12:45:23.579Z,15.97
2019-02-23T12:47:52.072Z,15.73
2019-02-23T12:50:20.553Z,13.63
2019-02-23T12:52:49.006Z,11.93
2019-02-23T12:55:17.511Z,12.77
2019-02-23T12:57:46.152Z,12.03
2019-02-23T13:00:16.484Z,13.93
2019-02-23T13:02:44.936Z,11.37
2019-02-23T13:05:13.594Z,10.40
2019-02-23T13:07:42.064Z,11.73
2019-02-23T13:10:13.798Z,11.93
2019-02-23T13:13:01.361Z,13.07
2019-02-23T13:15:51.394Z,14.80
2019-02-23T13:18:31.948Z,12.73
2019-02-23T13:21:09.170Z,14.63
2019-02-23T13:23:49.491Z,14.23
2019-02-23T13:26:39.169Z,15.47
2019-02-23T13:29:28.758Z,13.43
2019-02-23T13:32:18.016Z,18.10
2019-02-23T13:34:49.566Z,15.63
2019-02-23T13:37:26.619Z,13.13
2019-02-23T13:40:01.008Z,13.90
2019-02-23T13:42:54.485Z,12.07
2019-02-23T13:45:40.913Z,14.00
2019-02-23T13:48:28.814Z,13.93
2019-02-23T13:51:04.998Z,12.53
2019-02-23T13:53:42.067Z,13.47
2019-02-23T13:56:16.461Z,13.80
2019-02-23T13:59:02.706Z,13.70
2019-02-23T14:01:52.234Z,15.60
2019-02-23T14:04:49.003Z,13.63
2019-02-23T14:07:54.890Z,12.43
2019-02-23T14:10:52.349Z,14.47
2019-02-23T14:13:32.494Z,12.73
2019-02-23T14:16:20.511Z,16.03
2019-02-23T14:19:07.173Z,13.00
2019-02-23T14:21:55.294Z,14.73
2019-02-23T14:24:38.469Z,12.07
2019-02-23T14:27:35.421Z,13.20
2019-02-23T14:30:29.687Z,13.37
2019-02-23T14:33:32.969Z,13.90
2019-02-23T14:36:04.504Z,15.00
2019-02-23T14:38:58.739Z,12.97
2019-02-23T14:41:33.285Z,16.47
2019-02-23T14:44:10.698Z,15.00
2019-02-23T14:46:51.343Z,16.53
2019-02-23T14:49:31.397Z,14.37
2019-02-23T14:52:24.970Z,14.70
2019-02-23T14:55:00.993Z,14.93
2019-02-23T14:58:06.783Z,14.93
2019-02-23T15:00:50.210Z,14.57
2019-02-23T15:03:55.189Z,14.63
2019-02-23T15:06:43.534Z,14.90
2019-02-23T15:09:46.849Z,15.37
2019-02-23T15:12:21.197Z,14.17
2019-02-23T15:15:18.475Z,17.27
2019-02-23T15:17:58.349Z,13.50
2019-02-23T15:20:44.775Z,14.93
2019-02-23T15:23:18.968Z,14.10
2019-02-23T15:25:59.451Z,13.57
2019-02-23T15:28:39.901Z,13.43
2019-02-23T15:31:22.996Z,14.80
2019-02-23T15:34:00.344Z,16.23
2019-02-23T15:36:40.805Z,14.20
2019-02-23T15:39:41.347Z,17.43
2019-02-23T15:42:30.746Z,24.60
2019-02-23T15:45:04.860Z,15.13
2019-02-23T15:47:59.330Z,12.77
2019-02-23T15:50:27.784Z,13.97
2019-02-23T15:52:56.430Z,15.83
2019-02-23T15:55:26.479Z,14.73
2019-02-23T15:57:55.080Z,15.40
2019-02-23T16:00:23.553Z,14.30
2019-02-23T16:02:52.034Z,13.63
2019-02-23T16:05:20.605Z,15.13
2019-02-23T16:07:49.046Z,13.43
2019-02-23T16:10:17.968Z,15.13
2019-02-23T16:12:46.571Z,16.33
2019-02-23T16:15:15.059Z,12.87
2019-02-23T16:17:43.675Z,12.80
2019-02-23T16:20:12.180Z,13.37
2019-02-23T16:22:40.654Z,13.63
2019-02-23T16:25:09.183Z,14.57
2019-02-23T16:27:37.619Z,12.37
2019-02-23T16:30:09.541Z,12.33
2019-02-23T16:32:37.992Z,12.50
2019-02-23T16:35:08.043Z,15.87
2019-02-23T16:37:36.491Z,15.40
2019-02-23T16:40:06.429Z,14.50
2019-02-23T16:42:34.958Z,13.90
2019-02-23T16:45:04.025Z,11.97
2019-02-23T16:47:32.487Z,12.73
2019-02-23T16:50:00.994Z,13.60
2019-02-23T16:52:29.573Z,15.87
2019-02-23T16:54:58.085Z,17.97
2019-02-23T16:57:26.536Z,16.20
2019-02-23T16:59:55.028Z,14.20
2019-02-23T17:02:23.490Z,12.27
2019-02-23T17:04:53.804Z,15.40
2019-02-23T17:07:22.300Z,18.77
2019-02-23T17:09:50.788Z,17.00
2019-02-23T17:12:19.257Z,15.80
2019-02-23T17:14:47.762Z,15.43
2019-02-23T17:17:16.234Z,16.73
2019-02-23T17:19:44.856Z,19.93
2019-02-23T17:22:13.502Z,18.13
2019-02-23T17:24:42.035Z,16.97
2019-02-23T17:27:10.598Z,14.57
2019-02-23T17:29:39.048Z,16.40
2019-02-23T17:32:07.595Z,15.20
2019-02-23T17:34:36.062Z,14.10
2019-02-23T17:37:04.552Z,14.73
2019-02-23T17:39:33.008Z,16.17
2019-02-23T17:42:01.498Z,14.67
2019-02-23T17:44:29.990Z,17.07
2019-02-23T17:46:58.578Z,15.90
2019-02-23T17:49:27.140Z,16.87
2019-02-23T17:51:55.624Z,18.10
2019-02-23T17:54:24.151Z,15.60
2019-02-23T17:56:52.653Z,14.27
2019-02-23T17:59:21.221Z,16.37
2019-02-23T18:01:49.821Z,20.47
2019-02-23T18:04:18.231Z,18.27
2019-02-23T18:06:46.712Z,19.67
2019-02-23T18:09:15.168Z,19.27
2019-02-23T18:11:43.710Z,15.77
2019-02-23T18:14:12.268Z,15.90
2019-02-23T18:16:40.818Z,16.30
2019-02-23T18:19:09.294Z,19.10
2019-02-23T18:21:37.834Z,15.83
2019-02-23T18:24:06.862Z,18.77
2019-02-23T18:26:35.354Z,18.83
2019-02-23T18:29:03.893Z,16.53
2019-02-23T18:31:32.591Z,17.40
2019-02-23T18:34:01.002Z,20.53
2019-02-23T18:36:29.496Z,19.07
2019-02-23T18:38:57.966Z,19.67
2019-02-23T18:41:26.480Z,20.03
2019-02-23T18:43:55.016Z,17.53
2019-02-23T18:46:23.512Z,19.77
2019-02-23T18:48:51.962Z,18.90
2019-02-23T18:51:20.442Z,22.20
2019-02-23T18:53:48.913Z,17.20
2019-02-23T18:56:17.402Z,18.77
2019-02-23T18:58:45.870Z,18.37
2019-02-23T19:01:14.366Z,20.67
2019-02-23T19:03:42.837Z,18.13
2019-02-23T19:06:11.336Z,19.47
2019-02-23T19:08:39.811Z,18.87
2019-02-23T19:11:08.292Z,20.07
2019-02-23T19:13:36.752Z,17.63
2019-02-23T19:16:05.246Z,19.30
2019-02-23T19:18:33.703Z,24.80
2019-02-23T19:21:02.196Z,23.53
2019-02-23T19:23:30.667Z,21.33
2019-02-23T19:25:59.151Z,22.73
2019-02-23T19:28:27.604Z,23.00
2019-02-23T19:30:56.092Z,23.43
2019-02-23T19:33:24.559Z,23.07
2019-02-23T19:35:53.045Z,23.70
2019-02-23T19:38:21.511Z,18.27
2019-02-23T19:40:49.966Z,21.63
2019-02-23T19:43:18.459Z,22.23
2019-02-23T19:45:46.926Z,22.03
2019-02-23T19:48:15.411Z,21.73
2019-02-23T19:50:47.076Z,19.30
2019-02-23T19:53:15.573Z,19.50
2019-02-23T19:55:44.039Z,25.70
2019-02-23T19:58:12.536Z,21.63
2019-02-23T20:00:41.018Z,20.00
2019-02-23T20:03:09.512Z,20.43
2019-02-23T20:05:37.993Z,22.57
2019-02-23T20:08:06.481Z,19.27
2019-02-23T20:10:35.036Z,19.53
2019-02-23T20:13:03.741Z,22.07
2019-02-23T20:15:32.232Z,17.80
2019-02-23T20:18:00.716Z,21.63
2019-02-23T20:20:29.190Z,21.93
2019-02-23T20:22:57.672Z,20.30
2019-02-23T20:25:26.161Z,21.03
2019-02-23T20:27:54.646Z,19.17
2019-02-23T20:30:23.118Z,19.90
2019-02-23T20:32:51.600Z,18.73
2019-02-23T20:35:20.148Z,23.47
2019-02-23T20:37:48.636Z,22.20
2019-02-23T20:40:17.110Z,22.30
2019-02-23T20:42:45.666Z,23.87
2019-02-23T20:45:14.125Z,19.60
2019-02-23T20:47:42.635Z,19.73
2019-02-23T20:50:11.657Z,22.63
2019-02-23T20:52:40.142Z,22.80
2019-02-23T20:55:09.455Z,24.23
2019-02-23T20:57:37.959Z,23.67
2019-02-23T21:00:11.083Z,26.63
2019-02-23T21:02:39.938Z,26.10
2019-02-23T21:05:13.061Z,28.33
2019-02-23T21:07:41.618Z,34.53
2019-02-23T21:10:10.435Z,28.27
2019-02-23T21:12:38.915Z,30.30
2019-02-23T21:15:09.890Z,31.03
2019-02-23T21:17:38.397Z,27.17
2019-02-23T21:20:08.999Z,25.43
2019-02-23T21:22:37.579Z,26.27
2019-02-23T21:25:08.390Z,24.90
2019-02-23T21:27:36.889Z,23.70
2019-02-23T21:30:10.756Z,24.73
2019-02-23T21:32:39.330Z,24.17
2019-02-23T21:35:09.024Z,24.87
2019-02-23T21:37:37.514Z,25.43
2019-02-23T21:40:09.812Z,26.10
2019-02-23T21:42:38.430Z,22.53
2019-02-23T21:45:08.734Z,22.40
2019-02-23T21:47:37.238Z,25.10
2019-02-23T21:50:08.768Z,27.53
2019-02-23T21:52:37.271Z,22.00
2019-02-23T21:55:06.068Z,21.80
2019-02-23T21:57:34.629Z,24.20
2019-02-23T22:00:03.107Z,23.97
2019-02-23T22:02:31.590Z,22.13
2019-02-23T22:05:00.390Z,21.47
2019-02-23T22:07:29.020Z,22.60
2019-02-23T22:09:57.488Z,21.63
2019-02-23T22:12:25.994Z,22.90
2019-02-23T22:14:54.464Z,23.50
2019-02-23T22:17:22.962Z,22.63
2019-02-23T22:19:51.430Z,23.27
2019-02-23T22:22:19.916Z,21.73
2019-02-23T22:24:48.397Z,24.80
2019-02-23T22:27:16.892Z,23.13
2019-02-23T22:29:45.363Z,24.37
2019-02-23T22:32:13.837Z,24.50
2019-02-23T22:34:42.324Z,22.97
2019-02-23T22:37:10.809Z,20.97
2019-02-23T22:39:39.288Z,21.27
2019-02-23T22:42:07.772Z,25.90
2019-02-23T22:44:36.252Z,20.63
2019-02-23T22:47:04.736Z,22.33
2019-02-23T22:49:33.220Z,19.60
2019-02-23T22:52:01.687Z,20.73
2019-02-23T22:54:30.178Z,18.10
2019-02-23T22:56:58.656Z,22.80
2019-02-23T22:59:27.154Z,22.47
2019-02-23T23:01:55.623Z,25.13
2019-02-23T23:04:24.103Z,21.47
2019-02-23T23:06:52.651Z,25.33
2019-02-23T23:09:21.208Z,23.33
2019-02-23T23:11:49.695Z,21.13
2019-02-23T23:14:18.171Z,23.93
2019-02-23T23:16:46.646Z,22.63
2019-02-23T23:19:15.142Z,21.60
2019-02-23T23:21:43.613Z,22.03
2019-02-23T23:24:12.104Z,20.67
2019-02-23T23:26:40.583Z,25.47
2019-02-23T23:29:09.118Z,26.63
2019-02-23T23:31:37.579Z,21.83
2019-02-23T23:34:06.076Z,26.33
2019-02-23T23:36:34.536Z,23.40
2019-02-23T23:39:03.090Z,22.43
2019-02-23T23:41:31.575Z,24.37
2019-02-23T23:44:00.056Z,26.53
2019-02-23T23:46:28.531Z,24.17
2019-02-23T23:48:57.014Z,24.93
2019-02-23T23:51:25.474Z,25.13
2019-02-23T23:53:53.963Z,22.27
2019-02-23T23:56:22.427Z,24.77
2019-02-23T23:58:50.923Z,27.23
